sensor_id;sensor_type;location;lat;lon;timestamp;pressure;altitude;pressure_sealevel;temperature;humidity
39954;BME280;25631;51.516;-0.470;2023-02-28T00:00:56;103058.56;;;1.51;34.55
39954;BME280;25631;51.516;-0.470;2023-02-28T00:03:32;103059.24;;;2.30;34.41
39954;BME280;25631;51.516;-0.470;2023-02-28T00:06:09;103060.09;;;2.10;34.50
39954;BME280;25631;51.516;-0.470;2023-02-28T00:08:46;103063.09;;;2.20;34.66
39954;BME280;25631;51.516;-0.470;2023-02-28T00:11:22;103062.08;;;2.11;34.75
39954;BME280;25631;51.516;-0.470;2023-02-28T00:13:59;103060.51;;;2.03;34.85
39954;BME280;25631;51.516;-0.470;2023-02-28T00:16:35;103061.61;;;1.92;35.01
39954;BME280;25631;51.516;-0.470;2023-02-28T00:19:17;103060.55;;;2.03;35.07
39954;BME280;25631;51.516;-0.470;2023-02-28T00:21:54;103061.70;;;1.96;35.07
39954;BME280;25631;51.516;-0.470;2023-02-28T00:24:30;103064.13;;;2.11;35.17
39954;BME280;25631;51.516;-0.470;2023-02-28T00:27:07;103071.89;;;2.07;35.35
39954;BME280;25631;51.516;-0.470;2023-02-28T00:29:48;103071.24;;;2.07;35.44
39954;BME280;25631;51.516;-0.470;2023-02-28T00:32:25;103073.78;;;1.99;35.50
39954;BME280;25631;51.516;-0.470;2023-02-28T00:35:02;103069.57;;;2.02;35.50
39954;BME280;25631;51.516;-0.470;2023-02-28T00:37:39;103067.65;;;2.00;35.54
39954;BME280;25631;51.516;-0.470;2023-02-28T00:40:17;103074.15;;;2.05;35.61
39954;BME280;25631;51.516;-0.470;2023-02-28T00:42:53;103077.31;;;1.82;35.69
39954;BME280;25631;51.516;-0.470;2023-02-28T00:45:30;103074.81;;;1.81;35.71
39954;BME280;25631;51.516;-0.470;2023-02-28T00:48:07;103076.06;;;2.05;35.82
39954;BME280;25631;51.516;-0.470;2023-02-28T00:50:43;103075.03;;;1.70;35.89
39954;BME280;25631;51.516;-0.470;2023-02-28T00:53:39;103072.91;;;1.72;36.10
39954;BME280;25631;51.516;-0.470;2023-02-28T00:56:16;103073.71;;;1.86;36.09
39954;BME280;25631;51.516;-0.470;2023-02-28T00:58:52;103069.33;;;1.69;36.32
39954;BME280;25631;51.516;-0.470;2023-02-28T01:01:28;103071.69;;;1.57;36.57
39954;BME280;25631;51.516;-0.470;2023-02-28T01:04:14;103073.62;;;1.54;36.84
39954;BME280;25631;51.516;-0.470;2023-02-28T01:06:51;103072.17;;;1.55;36.94
39954;BME280;25631;51.516;-0.470;2023-02-28T01:09:28;103076.90;;;1.24;37.20
39954;BME280;25631;51.516;-0.470;2023-02-28T01:12:07;103075.98;;;1.50;37.24
39954;BME280;25631;51.516;-0.470;2023-02-28T01:14:43;103075.53;;;1.23;37.44
39954;BME280;25631;51.516;-0.470;2023-02-28T01:17:20;103074.76;;;1.36;37.66
39954;BME280;25631;51.516;-0.470;2023-02-28T01:19:57;103070.95;;;1.14;37.79
39954;BME280;25631;51.516;-0.470;2023-02-28T01:22:35;103068.55;;;1.39;37.82
39954;BME280;25631;51.516;-0.470;2023-02-28T01:25:12;103073.83;;;1.36;37.91
39954;BME280;25631;51.516;-0.470;2023-02-28T01:27:48;103065.92;;;1.63;38.12
39954;BME280;25631;51.516;-0.470;2023-02-28T01:30:25;103066.00;;;1.50;38.29
39954;BME280;25631;51.516;-0.470;2023-02-28T01:33:03;103068.11;;;1.21;38.18
39954;BME280;25631;51.516;-0.470;2023-02-28T01:35:39;103071.85;;;1.33;38.28
39954;BME280;25631;51.516;-0.470;2023-02-28T01:38:16;103071.14;;;1.29;38.42
39954;BME280;25631;51.516;-0.470;2023-02-28T01:40:55;103070.27;;;1.50;38.40
39954;BME280;25631;51.516;-0.470;2023-02-28T01:43:53;103071.16;;;1.21;38.49
39954;BME280;25631;51.516;-0.470;2023-02-28T01:46:31;103069.94;;;1.60;38.59
39954;BME280;25631;51.516;-0.470;2023-02-28T01:49:11;103070.96;;;1.44;38.58
39954;BME280;25631;51.516;-0.470;2023-02-28T01:51:51;103066.51;;;1.37;38.67
39954;BME280;25631;51.516;-0.470;2023-02-28T01:54:31;103066.76;;;1.58;38.66
39954;BME280;25631;51.516;-0.470;2023-02-28T01:57:19;103071.00;;;1.49;38.69
39954;BME280;25631;51.516;-0.470;2023-02-28T02:00:01;103068.88;;;1.49;38.74
39954;BME280;25631;51.516;-0.470;2023-02-28T02:02:42;103065.73;;;1.58;38.85
39954;BME280;25631;51.516;-0.470;2023-02-28T02:05:27;103066.72;;;1.31;38.83
39954;BME280;25631;51.516;-0.470;2023-02-28T02:08:12;103065.11;;;1.78;38.78
39954;BME280;25631;51.516;-0.470;2023-02-28T02:10:51;103064.77;;;1.69;38.77
39954;BME280;25631;51.516;-0.470;2023-02-28T02:13:56;103064.80;;;1.40;38.78
39954;BME280;25631;51.516;-0.470;2023-02-28T02:16:47;103063.84;;;2.03;38.80
39954;BME280;25631;51.516;-0.470;2023-02-28T02:20:09;103063.47;;;1.45;38.83
39954;BME280;25631;51.516;-0.470;2023-02-28T02:23:25;103063.98;;;1.64;38.90
39954;BME280;25631;51.516;-0.470;2023-02-28T02:26:29;103067.22;;;1.87;38.87
39954;BME280;25631;51.516;-0.470;2023-02-28T02:29:31;103067.01;;;1.76;38.96
39954;BME280;25631;51.516;-0.470;2023-02-28T02:32:25;103066.97;;;1.42;38.97
39954;BME280;25631;51.516;-0.470;2023-02-28T02:35:12;103068.26;;;1.64;38.98
39954;BME280;25631;51.516;-0.470;2023-02-28T02:37:52;103069.67;;;1.54;39.02
39954;BME280;25631;51.516;-0.470;2023-02-28T02:40:37;103073.21;;;1.89;39.07
39954;BME280;25631;51.516;-0.470;2023-02-28T02:43:18;103070.68;;;1.74;39.05
39954;BME280;25631;51.516;-0.470;2023-02-28T02:45:58;103072.87;;;1.74;39.07
39954;BME280;25631;51.516;-0.470;2023-02-28T02:48:39;103071.65;;;1.48;39.03
39954;BME280;25631;51.516;-0.470;2023-02-28T02:51:20;103075.46;;;1.63;38.95
39954;BME280;25631;51.516;-0.470;2023-02-28T02:54:02;103074.45;;;2.12;38.96
39954;BME280;25631;51.516;-0.470;2023-02-28T02:56:42;103077.16;;;1.79;38.93
39954;BME280;25631;51.516;-0.470;2023-02-28T02:59:21;103078.52;;;1.69;38.94
39954;BME280;25631;51.516;-0.470;2023-02-28T03:02:01;103076.49;;;1.70;38.96
39954;BME280;25631;51.516;-0.470;2023-02-28T03:04:43;103077.25;;;1.60;39.04
39954;BME280;25631;51.516;-0.470;2023-02-28T03:07:22;103078.93;;;1.71;39.06
39954;BME280;25631;51.516;-0.470;2023-02-28T03:09:58;103075.77;;;1.81;39.02
39954;BME280;25631;51.516;-0.470;2023-02-28T03:12:44;103073.25;;;1.51;39.02
39954;BME280;25631;51.516;-0.470;2023-02-28T03:15:29;103068.90;;;1.66;38.97
39954;BME280;25631;51.516;-0.470;2023-02-28T03:18:12;103061.97;;;1.63;39.04
39954;BME280;25631;51.516;-0.470;2023-02-28T03:20:59;103055.03;;;1.59;39.03
39954;BME280;25631;51.516;-0.470;2023-02-28T03:23:45;103055.30;;;1.42;39.15
39954;BME280;25631;51.516;-0.470;2023-02-28T03:26:25;103056.63;;;1.63;39.29
39954;BME280;25631;51.516;-0.470;2023-02-28T03:29:07;103057.46;;;1.54;39.45
39954;BME280;25631;51.516;-0.470;2023-02-28T03:31:51;103058.28;;;1.16;39.50
39954;BME280;25631;51.516;-0.470;2023-02-28T03:34:34;103061.47;;;1.34;39.55
39954;BME280;25631;51.516;-0.470;2023-02-28T03:37:18;103066.02;;;1.45;39.73
39954;BME280;25631;51.516;-0.470;2023-02-28T03:40:04;103065.37;;;1.26;39.86
39954;BME280;25631;51.516;-0.470;2023-02-28T03:42:45;103063.96;;;1.13;40.13
39954;BME280;25631;51.516;-0.470;2023-02-28T03:45:27;103059.92;;;1.24;40.05
39954;BME280;25631;51.516;-0.470;2023-02-28T03:48:11;103062.21;;;1.45;40.06
39954;BME280;25631;51.516;-0.470;2023-02-28T03:50:53;103066.66;;;1.42;40.06
39954;BME280;25631;51.516;-0.470;2023-02-28T03:53:39;103064.86;;;1.12;40.25
39954;BME280;25631;51.516;-0.470;2023-02-28T03:56:19;103063.71;;;1.18;40.23
39954;BME280;25631;51.516;-0.470;2023-02-28T03:59:01;103065.89;;;1.18;40.15
39954;BME280;25631;51.516;-0.470;2023-02-28T04:01:43;103073.27;;;1.23;40.25
39954;BME280;25631;51.516;-0.470;2023-02-28T04:04:21;103072.41;;;1.12;40.16
39954;BME280;25631;51.516;-0.470;2023-02-28T04:07:02;103073.60;;;0.96;40.03
39954;BME280;25631;51.516;-0.470;2023-02-28T04:09:39;103075.74;;;1.05;40.03
39954;BME280;25631;51.516;-0.470;2023-02-28T04:12:16;103068.79;;;1.34;40.17
39954;BME280;25631;51.516;-0.470;2023-02-28T04:14:53;103074.26;;;1.36;40.08
39954;BME280;25631;51.516;-0.470;2023-02-28T04:17:29;103077.42;;;1.18;40.19
39954;BME280;25631;51.516;-0.470;2023-02-28T04:20:07;103073.87;;;1.39;40.16
39954;BME280;25631;51.516;-0.470;2023-02-28T04:22:43;103077.30;;;1.19;40.06
39954;BME280;25631;51.516;-0.470;2023-02-28T04:25:20;103076.85;;;1.26;40.07
39954;BME280;25631;51.516;-0.470;2023-02-28T04:27:57;103081.35;;;1.24;40.08
39954;BME280;25631;51.516;-0.470;2023-02-28T04:30:33;103084.57;;;1.14;40.09
39954;BME280;25631;51.516;-0.470;2023-02-28T04:33:10;103084.04;;;1.16;40.04
39954;BME280;25631;51.516;-0.470;2023-02-28T04:35:46;103083.92;;;1.28;40.04
39954;BME280;25631;51.516;-0.470;2023-02-28T04:38:23;103084.16;;;1.40;40.01
39954;BME280;25631;51.516;-0.470;2023-02-28T04:41:00;103089.49;;;1.31;40.04
39954;BME280;25631;51.516;-0.470;2023-02-28T04:43:37;103090.39;;;1.33;39.99
39954;BME280;25631;51.516;-0.470;2023-02-28T04:46:14;103087.98;;;1.13;39.98
39954;BME280;25631;51.516;-0.470;2023-02-28T04:48:51;103090.55;;;1.13;39.98
39954;BME280;25631;51.516;-0.470;2023-02-28T04:51:28;103088.39;;;1.05;39.96
39954;BME280;25631;51.516;-0.470;2023-02-28T04:54:04;103089.44;;;1.29;39.89
39954;BME280;25631;51.516;-0.470;2023-02-28T04:56:41;103091.66;;;1.32;39.93
39954;BME280;25631;51.516;-0.470;2023-02-28T04:59:17;103091.17;;;1.28;39.97
39954;BME280;25631;51.516;-0.470;2023-02-28T05:01:54;103088.52;;;1.06;40.01
39954;BME280;25631;51.516;-0.470;2023-02-28T05:04:31;103093.29;;;1.14;40.06
39954;BME280;25631;51.516;-0.470;2023-02-28T05:07:07;103095.03;;;1.14;40.08
39954;BME280;25631;51.516;-0.470;2023-02-28T05:09:44;103102.65;;;1.11;40.07
39954;BME280;25631;51.516;-0.470;2023-02-28T05:12:21;103105.63;;;1.33;40.08
39954;BME280;25631;51.516;-0.470;2023-02-28T05:14:57;103102.57;;;1.34;40.11
39954;BME280;25631;51.516;-0.470;2023-02-28T05:17:34;103104.43;;;1.02;40.19
39954;BME280;25631;51.516;-0.470;2023-02-28T05:20:11;103108.13;;;1.17;40.12
39954;BME280;25631;51.516;-0.470;2023-02-28T05:22:49;103107.64;;;1.32;40.14
39954;BME280;25631;51.516;-0.470;2023-02-28T05:25:26;103106.59;;;1.22;40.20
39954;BME280;25631;51.516;-0.470;2023-02-28T05:28:03;103104.78;;;0.92;40.18
39954;BME280;25631;51.516;-0.470;2023-02-28T05:30:40;103105.93;;;1.23;40.22
39954;BME280;25631;51.516;-0.470;2023-02-28T05:33:17;103106.29;;;1.25;40.22
39954;BME280;25631;51.516;-0.470;2023-02-28T05:35:53;103106.47;;;1.28;40.16
39954;BME280;25631;51.516;-0.470;2023-02-28T05:38:30;103104.95;;;1.12;40.23
39954;BME280;25631;51.516;-0.470;2023-02-28T05:41:07;103103.68;;;1.36;40.43
39954;BME280;25631;51.516;-0.470;2023-02-28T05:43:44;103104.01;;;1.17;40.63
39954;BME280;25631;51.516;-0.470;2023-02-28T05:46:21;103104.16;;;1.11;40.67
39954;BME280;25631;51.516;-0.470;2023-02-28T05:48:58;103104.11;;;1.02;40.94
39954;BME280;25631;51.516;-0.470;2023-02-28T05:51:34;103110.44;;;0.77;41.04
39954;BME280;25631;51.516;-0.470;2023-02-28T05:54:11;103111.58;;;0.93;41.21
39954;BME280;25631;51.516;-0.470;2023-02-28T05:56:47;103113.62;;;0.82;41.31
39954;BME280;25631;51.516;-0.470;2023-02-28T05:59:24;103115.73;;;0.79;41.44
39954;BME280;25631;51.516;-0.470;2023-02-28T06:02:01;103121.11;;;0.52;42.07
39954;BME280;25631;51.516;-0.470;2023-02-28T06:04:38;103123.21;;;0.65;41.78
39954;BME280;25631;51.516;-0.470;2023-02-28T06:07:15;103125.32;;;0.66;41.78
39954;BME280;25631;51.516;-0.470;2023-02-28T06:09:52;103122.80;;;0.67;41.70
39954;BME280;25631;51.516;-0.470;2023-02-28T06:12:28;103126.40;;;0.51;41.65
39954;BME280;25631;51.516;-0.470;2023-02-28T06:15:06;103124.44;;;0.60;41.58
39954;BME280;25631;51.516;-0.470;2023-02-28T06:17:44;103130.48;;;0.67;41.57
39954;BME280;25631;51.516;-0.470;2023-02-28T06:20:21;103131.17;;;0.58;41.56
39954;BME280;25631;51.516;-0.470;2023-02-28T06:22:58;103129.77;;;0.67;41.53
39954;BME280;25631;51.516;-0.470;2023-02-28T06:25:34;103135.61;;;0.36;41.50
39954;BME280;25631;51.516;-0.470;2023-02-28T06:28:11;103134.71;;;0.62;41.37
39954;BME280;25631;51.516;-0.470;2023-02-28T06:30:47;103137.86;;;0.92;41.27
39954;BME280;25631;51.516;-0.470;2023-02-28T06:33:24;103136.94;;;0.81;41.29
39954;BME280;25631;51.516;-0.470;2023-02-28T06:36:00;103135.10;;;0.70;41.21
39954;BME280;25631;51.516;-0.470;2023-02-28T06:38:37;103135.22;;;0.90;41.22
39954;BME280;25631;51.516;-0.470;2023-02-28T06:41:14;103135.24;;;0.82;41.23
39954;BME280;25631;51.516;-0.470;2023-02-28T06:43:50;103136.82;;;0.97;41.24
39954;BME280;25631;51.516;-0.470;2023-02-28T06:46:27;103134.82;;;0.90;41.22
39954;BME280;25631;51.516;-0.470;2023-02-28T06:49:04;103134.49;;;0.87;41.12
39954;BME280;25631;51.516;-0.470;2023-02-28T06:51:42;103132.04;;;0.49;41.00
39954;BME280;25631;51.516;-0.470;2023-02-28T06:54:20;103125.73;;;0.91;40.86
39954;BME280;25631;51.516;-0.470;2023-02-28T06:56:58;103119.64;;;1.25;40.80
39954;BME280;25631;51.516;-0.470;2023-02-28T06:59:35;103121.79;;;0.91;40.72
39954;BME280;25631;51.516;-0.470;2023-02-28T07:02:11;103118.84;;;1.18;40.81
39954;BME280;25631;51.516;-0.470;2023-02-28T07:04:48;103121.73;;;0.89;41.00
39954;BME280;25631;51.516;-0.470;2023-02-28T07:07:25;103122.19;;;1.18;41.09
39954;BME280;25631;51.516;-0.470;2023-02-28T07:10:01;103124.24;;;1.21;41.14
39954;BME280;25631;51.516;-0.470;2023-02-28T07:12:38;103128.45;;;1.06;41.18
39954;BME280;25631;51.516;-0.470;2023-02-28T07:15:15;103134.69;;;1.08;41.17
39954;BME280;25631;51.516;-0.470;2023-02-28T07:17:51;103133.62;;;1.11;41.19
39954;BME280;25631;51.516;-0.470;2023-02-28T07:20:28;103134.88;;;1.04;41.21
39954;BME280;25631;51.516;-0.470;2023-02-28T07:23:05;103139.73;;;1.19;41.13
39954;BME280;25631;51.516;-0.470;2023-02-28T07:26:57;103144.09;;;1.25;41.26
39954;BME280;25631;51.516;-0.470;2023-02-28T07:29:34;103143.20;;;1.09;41.19
39954;BME280;25631;51.516;-0.470;2023-02-28T07:32:10;103141.60;;;1.09;41.24
39954;BME280;25631;51.516;-0.470;2023-02-28T07:34:47;103140.57;;;0.96;41.21
39954;BME280;25631;51.516;-0.470;2023-02-28T07:37:23;103140.21;;;1.45;41.27
39954;BME280;25631;51.516;-0.470;2023-02-28T07:40:00;103139.43;;;1.43;41.33
39954;BME280;25631;51.516;-0.470;2023-02-28T07:42:36;103140.58;;;1.32;41.38
39954;BME280;25631;51.516;-0.470;2023-02-28T07:45:13;103142.34;;;1.46;41.42
39954;BME280;25631;51.516;-0.470;2023-02-28T07:47:50;103143.71;;;0.88;41.36
39954;BME280;25631;51.516;-0.470;2023-02-28T07:50:27;103139.23;;;1.52;41.32
39954;BME280;25631;51.516;-0.470;2023-02-28T07:53:03;103142.80;;;1.53;41.28
39954;BME280;25631;51.516;-0.470;2023-02-28T07:55:40;103138.94;;;1.06;41.18
39954;BME280;25631;51.516;-0.470;2023-02-28T07:58:17;103140.54;;;1.63;41.17
39954;BME280;25631;51.516;-0.470;2023-02-28T08:00:53;103144.58;;;1.42;41.27
39954;BME280;25631;51.516;-0.470;2023-02-28T08:03:30;103137.72;;;1.34;41.15
39954;BME280;25631;51.516;-0.470;2023-02-28T08:06:08;103135.89;;;1.75;41.16
39954;BME280;25631;51.516;-0.470;2023-02-28T08:08:52;103140.69;;;1.71;41.32
39954;BME280;25631;51.516;-0.470;2023-02-28T08:11:29;103132.23;;;1.59;41.38
39954;BME280;25631;51.516;-0.470;2023-02-28T08:14:05;103128.19;;;1.60;41.40
39954;BME280;25631;51.516;-0.470;2023-02-28T08:16:42;103127.85;;;1.86;41.29
39954;BME280;25631;51.516;-0.470;2023-02-28T08:19:18;103130.90;;;1.84;41.14
39954;BME280;25631;51.516;-0.470;2023-02-28T08:21:55;103128.16;;;2.03;41.02
39954;BME280;25631;51.516;-0.470;2023-02-28T08:24:32;103128.77;;;1.82;40.91
39954;BME280;25631;51.516;-0.470;2023-02-28T08:27:08;103130.23;;;1.76;40.87
39954;BME280;25631;51.516;-0.470;2023-02-28T08:29:45;103135.81;;;2.13;40.78
39954;BME280;25631;51.516;-0.470;2023-02-28T08:32:21;103140.01;;;1.98;40.61
39954;BME280;25631;51.516;-0.470;2023-02-28T08:34:58;103142.87;;;2.21;40.66
39954;BME280;25631;51.516;-0.470;2023-02-28T08:37:35;103148.40;;;2.13;40.68
39954;BME280;25631;51.516;-0.470;2023-02-28T08:40:11;103148.64;;;1.89;40.70
39954;BME280;25631;51.516;-0.470;2023-02-28T08:42:48;103157.39;;;2.05;40.79
39954;BME280;25631;51.516;-0.470;2023-02-28T08:45:25;103153.84;;;1.79;40.82
39954;BME280;25631;51.516;-0.470;2023-02-28T08:48:02;103153.61;;;2.19;40.85
39954;BME280;25631;51.516;-0.470;2023-02-28T08:50:39;103150.02;;;2.36;40.81
39954;BME280;25631;51.516;-0.470;2023-02-28T08:53:16;103150.18;;;2.19;40.76
39954;BME280;25631;51.516;-0.470;2023-02-28T08:56:00;103152.00;;;2.25;40.74
39954;BME280;25631;51.516;-0.470;2023-02-28T08:58:38;103153.75;;;2.56;40.68
39954;BME280;25631;51.516;-0.470;2023-02-28T09:01:16;103150.34;;;2.54;40.71
39954;BME280;25631;51.516;-0.470;2023-02-28T09:03:54;103146.18;;;2.58;40.73
39954;BME280;25631;51.516;-0.470;2023-02-28T09:06:32;103146.74;;;2.57;40.62
39954;BME280;25631;51.516;-0.470;2023-02-28T09:09:08;103143.54;;;2.66;40.65
39954;BME280;25631;51.516;-0.470;2023-02-28T09:11:45;103145.02;;;2.69;40.63
39954;BME280;25631;51.516;-0.470;2023-02-28T09:14:22;103144.48;;;2.71;40.53
39954;BME280;25631;51.516;-0.470;2023-02-28T09:16:58;103142.95;;;2.95;40.56
39954;BME280;25631;51.516;-0.470;2023-02-28T09:19:35;103144.87;;;3.01;40.39
39954;BME280;25631;51.516;-0.470;2023-02-28T09:22:11;103142.18;;;3.21;40.23
39954;BME280;25631;51.516;-0.470;2023-02-28T09:24:53;103142.05;;;3.39;40.26
39954;BME280;25631;51.516;-0.470;2023-02-28T09:27:30;103141.30;;;3.17;40.23
39954;BME280;25631;51.516;-0.470;2023-02-28T09:30:08;103139.21;;;3.44;40.28
39954;BME280;25631;51.516;-0.470;2023-02-28T09:32:45;103141.82;;;3.34;40.20
39954;BME280;25631;51.516;-0.470;2023-02-28T09:35:23;103142.45;;;3.48;40.08
39954;BME280;25631;51.516;-0.470;2023-02-28T09:38:00;103137.17;;;3.25;40.02
39954;BME280;25631;51.516;-0.470;2023-02-28T09:40:39;103136.09;;;3.57;40.00
39954;BME280;25631;51.516;-0.470;2023-02-28T09:43:21;103136.86;;;3.42;39.97
39954;BME280;25631;51.516;-0.470;2023-02-28T09:46:02;103136.18;;;3.42;39.97
39954;BME280;25631;51.516;-0.470;2023-02-28T09:48:46;103128.76;;;3.44;39.81
39954;BME280;25631;51.516;-0.470;2023-02-28T09:51:33;103127.14;;;3.74;39.73
39954;BME280;25631;51.516;-0.470;2023-02-28T09:54:15;103129.02;;;4.00;39.79
39954;BME280;25631;51.516;-0.470;2023-02-28T09:56:55;103130.43;;;3.87;39.82
39954;BME280;25631;51.516;-0.470;2023-02-28T09:59:59;103129.25;;;4.03;39.67
39954;BME280;25631;51.516;-0.470;2023-02-28T10:02:47;103130.19;;;4.01;39.43
39954;BME280;25631;51.516;-0.470;2023-02-28T10:05:30;103130.82;;;4.11;39.41
39954;BME280;25631;51.516;-0.470;2023-02-28T10:08:13;103132.81;;;4.32;39.42
39954;BME280;25631;51.516;-0.470;2023-02-28T10:10:55;103133.17;;;4.43;39.29
39954;BME280;25631;51.516;-0.470;2023-02-28T10:13:35;103129.34;;;4.44;39.27
39954;BME280;25631;51.516;-0.470;2023-02-28T10:16:15;103123.37;;;4.45;39.17
39954;BME280;25631;51.516;-0.470;2023-02-28T10:18:57;103115.14;;;4.35;39.11
39954;BME280;25631;51.516;-0.470;2023-02-28T10:21:41;103114.20;;;4.55;39.16
39954;BME280;25631;51.516;-0.470;2023-02-28T10:24:23;103112.74;;;4.60;38.96
39954;BME280;25631;51.516;-0.470;2023-02-28T10:27:14;103111.95;;;4.90;38.71
39954;BME280;25631;51.516;-0.470;2023-02-28T10:29:52;103114.59;;;4.59;38.63
39954;BME280;25631;51.516;-0.470;2023-02-28T10:32:32;103112.06;;;5.03;38.50
39954;BME280;25631;51.516;-0.470;2023-02-28T10:35:16;103111.61;;;4.58;38.37
39954;BME280;25631;51.516;-0.470;2023-02-28T10:37:55;103115.88;;;4.89;38.14
39954;BME280;25631;51.516;-0.470;2023-02-28T10:40:34;103113.74;;;4.68;38.19
39954;BME280;25631;51.516;-0.470;2023-02-28T10:43:21;103108.90;;;4.90;38.19
39954;BME280;25631;51.516;-0.470;2023-02-28T10:46:02;103108.63;;;4.70;38.19
39954;BME280;25631;51.516;-0.470;2023-02-28T10:48:41;103105.43;;;4.57;38.29
39954;BME280;25631;51.516;-0.470;2023-02-28T10:51:19;103105.49;;;4.59;38.50
39954;BME280;25631;51.516;-0.470;2023-02-28T10:53:55;103109.95;;;4.77;38.76
39954;BME280;25631;51.516;-0.470;2023-02-28T10:56:32;103102.39;;;4.59;38.86
39954;BME280;25631;51.516;-0.470;2023-02-28T10:59:26;103101.15;;;4.80;39.00
39954;BME280;25631;51.516;-0.470;2023-02-28T11:02:30;103096.40;;;4.66;39.08
39954;BME280;25631;51.516;-0.470;2023-02-28T11:05:24;103096.98;;;4.78;38.97
39954;BME280;25631;51.516;-0.470;2023-02-28T11:08:06;103098.56;;;4.50;38.99
39954;BME280;25631;51.516;-0.470;2023-02-28T11:10:48;103093.96;;;4.86;38.88
39954;BME280;25631;51.516;-0.470;2023-02-28T11:13:32;103096.46;;;4.61;38.83
39954;BME280;25631;51.516;-0.470;2023-02-28T11:16:12;103091.97;;;4.56;38.77
39954;BME280;25631;51.516;-0.470;2023-02-28T11:18:52;103088.49;;;4.68;38.76
39954;BME280;25631;51.516;-0.470;2023-02-28T11:21:32;103088.21;;;4.97;38.67
39954;BME280;25631;51.516;-0.470;2023-02-28T11:24:19;103085.18;;;4.77;38.65
39954;BME280;25631;51.516;-0.470;2023-02-28T11:26:59;103084.68;;;5.41;38.57
39954;BME280;25631;51.516;-0.470;2023-02-28T11:29:47;103083.62;;;5.06;38.61
39954;BME280;25631;51.516;-0.470;2023-02-28T11:32:25;103081.85;;;4.59;38.60
39954;BME280;25631;51.516;-0.470;2023-02-28T11:35:10;103080.92;;;4.92;38.55
39954;BME280;25631;51.516;-0.470;2023-02-28T11:37:50;103076.16;;;4.99;38.48
39954;BME280;25631;51.516;-0.470;2023-02-28T11:40:35;103078.12;;;4.87;38.43
39954;BME280;25631;51.516;-0.470;2023-02-28T11:43:25;103071.62;;;4.80;38.47
39954;BME280;25631;51.516;-0.470;2023-02-28T11:46:15;103067.34;;;4.98;38.59
39954;BME280;25631;51.516;-0.470;2023-02-28T11:49:01;103066.06;;;4.99;38.67
39954;BME280;25631;51.516;-0.470;2023-02-28T11:51:47;103052.89;;;4.94;38.67
39954;BME280;25631;51.516;-0.470;2023-02-28T11:54:32;103044.54;;;5.12;38.79
39954;BME280;25631;51.516;-0.470;2023-02-28T11:57:24;103032.70;;;5.20;38.79
39954;BME280;25631;51.516;-0.470;2023-02-28T12:00:14;103020.68;;;4.94;38.81
39954;BME280;25631;51.516;-0.470;2023-02-28T12:03:01;102997.13;;;5.00;38.82
39954;BME280;25631;51.516;-0.470;2023-02-28T12:05:44;102980.67;;;5.00;38.80
39954;BME280;25631;51.516;-0.470;2023-02-28T12:08:30;102979.09;;;5.02;38.80
39954;BME280;25631;51.516;-0.470;2023-02-28T12:11:16;102989.97;;;4.92;38.95
39954;BME280;25631;51.516;-0.470;2023-02-28T12:14:06;103002.17;;;4.80;38.90
39954;BME280;25631;51.516;-0.470;2023-02-28T12:16:59;103010.90;;;4.92;38.90
39954;BME280;25631;51.516;-0.470;2023-02-28T12:19:42;103027.12;;;4.98;38.86
39954;BME280;25631;51.516;-0.470;2023-02-28T12:22:28;103032.08;;;5.00;38.87
39954;BME280;25631;51.516;-0.470;2023-02-28T12:25:33;103021.10;;;4.88;38.92
39954;BME280;25631;51.516;-0.470;2023-02-28T12:28:20;103021.49;;;5.02;39.00
39954;BME280;25631;51.516;-0.470;2023-02-28T12:31:01;103000.61;;;4.98;38.92
39954;BME280;25631;51.516;-0.470;2023-02-28T12:33:43;102995.57;;;5.31;38.93
39954;BME280;25631;51.516;-0.470;2023-02-28T12:36:22;102990.86;;;5.42;38.73
39954;BME280;25631;51.516;-0.470;2023-02-28T12:39:01;102991.51;;;5.33;38.70
39954;BME280;25631;51.516;-0.470;2023-02-28T12:41:43;102985.73;;;5.40;38.65
39954;BME280;25631;51.516;-0.470;2023-02-28T12:44:26;102983.38;;;5.50;38.58
39954;BME280;25631;51.516;-0.470;2023-02-28T12:47:08;102980.51;;;5.42;38.53
39954;BME280;25631;51.516;-0.470;2023-02-28T12:49:51;102981.24;;;5.56;38.46
39954;BME280;25631;51.516;-0.470;2023-02-28T12:52:37;102975.78;;;5.50;38.31
39954;BME280;25631;51.516;-0.470;2023-02-28T12:55:21;102971.15;;;5.51;38.38
39954;BME280;25631;51.516;-0.470;2023-02-28T12:58:08;102960.59;;;5.28;38.43
39954;BME280;25631;51.516;-0.470;2023-02-28T13:01:03;102952.37;;;5.50;38.39
39954;BME280;25631;51.516;-0.470;2023-02-28T13:04:05;102944.06;;;5.46;38.37
39954;BME280;25631;51.516;-0.470;2023-02-28T13:06:59;102936.97;;;5.41;38.40
39954;BME280;25631;51.516;-0.470;2023-02-28T13:09:51;102920.73;;;5.60;38.40
39954;BME280;25631;51.516;-0.470;2023-02-28T13:12:29;102917.06;;;5.53;38.53
39954;BME280;25631;51.516;-0.470;2023-02-28T13:15:08;102912.32;;;5.70;38.46
39954;BME280;25631;51.516;-0.470;2023-02-28T13:17:55;102912.74;;;5.65;38.45
39954;BME280;25631;51.516;-0.470;2023-02-28T13:20:35;102914.57;;;5.75;38.27
39954;BME280;25631;51.516;-0.470;2023-02-28T13:23:39;102906.38;;;5.61;38.18
39954;BME280;25631;51.516;-0.470;2023-02-28T13:26:16;102901.98;;;5.70;38.17
39954;BME280;25631;51.516;-0.470;2023-02-28T13:29:21;102902.18;;;5.82;38.23
39954;BME280;25631;51.516;-0.470;2023-02-28T13:32:35;102897.15;;;5.68;38.34
39954;BME280;25631;51.516;-0.470;2023-02-28T13:35:17;102886.02;;;5.74;38.55
39954;BME280;25631;51.516;-0.470;2023-02-28T13:38:24;102880.26;;;5.40;38.62
39954;BME280;25631;51.516;-0.470;2023-02-28T13:42:33;102881.15;;;5.68;38.66
39954;BME280;25631;51.516;-0.470;2023-02-28T13:45:24;102879.82;;;5.96;38.64
39954;BME280;25631;51.516;-0.470;2023-02-28T13:48:02;102878.38;;;5.69;38.46
39954;BME280;25631;51.516;-0.470;2023-02-28T13:50:39;102877.73;;;5.78;38.47
39954;BME280;25631;51.516;-0.470;2023-02-28T13:53:36;102878.77;;;6.06;38.34
39954;BME280;25631;51.516;-0.470;2023-02-28T13:56:26;102878.34;;;6.40;38.29
39954;BME280;25631;51.516;-0.470;2023-02-28T13:59:16;102874.93;;;6.14;38.19
39954;BME280;25631;51.516;-0.470;2023-02-28T14:02:08;102875.50;;;6.19;38.07
39954;BME280;25631;51.516;-0.470;2023-02-28T14:04:59;102873.88;;;6.24;37.88